South Ryegate, VT (05069)

8:36 PM EDT on August 28, 2015 (GMT -0400)
ROGERs Station | | Change Station
CLOSE
Current Station
Personal Weather Station
Location: Ryegate, VT
Elevation: 630 ft
Nearby Weather Stations

Elev 630 ft 44.20 °N, 72.07 °W | Updated 6 minutes ago

Clear
Clear
59.2 °F
Feels Like 59.2 °F
N
4.3
Wind Variable Wind from WNW

Today
High -- | Low -- °F
--% Chance of Precip.
Yesterday
High -- | Low -- °F
Precip. -- in
6:06 AM 7:32 PM
Waxing Gibbous, 99% visible
Pressure 30.21 in
Visibility 10.0 miles
Clouds Clear
Dew Point 57 °F
Humidity 91%
Rainfall 0.00 in
Snow Depth Not available.
UV 0 out of 12
Pollen 8.20 out of 12
Air Quality Not available.
Flu Activity Not available.
METAR KMPV 282351Z AUTO 19003KT 10SM CLR 16/13 A3020 RMK AO2 SLP228 T01560128 10222 20156 53008
Pressure 30.21 in
Visibility 10.0 miles
Clouds Clear
Dew Point 57 °F
Humidity 91%
Rainfall 0.00 in
Snow Depth Not available.
UV 0 out of 12
Pollen 8.20 out of 12
Air Quality Not available.
Flu Activity Not available.
METAR KMPV 282351Z AUTO 19003KT 10SM CLR 16/13 A3020 RMK AO2 SLP228 T01560128 10222 20156 53008

10-Day Weather Forecast

×

Almanac

Astronomy

Aug. 28, 2015 Rise Set
Actual Time
Civil Twilight
Nautical Twilight
Astronomical Twilight
Moon
Length of Visible Light
Length of Day
Tomorrow will be .
, % of the Moon is Illuminated

Today's Extremes

State Highs State Lows

Community

WunderPhotos

Upload Photos

1,850,548 photos uploaded!

WunderBlogs® & News

Nearby

Air Quality

  Air Quality AQ Index Pollutant
Not available.

Snow Depth

Station Depth Elevation

Earthquake Activity

City Distance Mag. Time & Date
Minimum magnitude displayed is 2.5.

Coastal Water Temperatures

Place Temperature

Stations

Nearby Weather Stations

Station Location Temp. Windchill Dew Point Humidity Wind Precip. Elev Updated Type